sensor_id;sensor_type;location;lat;lon;timestamp;temperature;humidity
9125;DHT22;4597;48.730;9.114;2023-03-15T00:01:17;3.10;99.90
9125;DHT22;4597;48.730;9.114;2023-03-15T00:03:43;3.10;99.90
9125;DHT22;4597;48.730;9.114;2023-03-15T00:06:10;3.20;99.90
9125;DHT22;4597;48.730;9.114;2023-03-15T00:08:36;3.10;99.90
9125;DHT22;4597;48.730;9.114;2023-03-15T00:11:02;3.20;99.90
9125;DHT22;4597;48.730;9.114;2023-03-15T00:13:28;3.10;99.90
9125;DHT22;4597;48.730;9.114;2023-03-15T00:15:56;3.10;99.90
9125;DHT22;4597;48.730;9.114;2023-03-15T00:18:22;3.00;99.90
9125;DHT22;4597;48.730;9.114;2023-03-15T00:20:48;3.00;99.90
9125;DHT22;4597;48.730;9.114;2023-03-15T00:23:14;3.00;99.90
9125;DHT22;4597;48.730;9.114;2023-03-15T00:25:43;3.00;99.90
9125;DHT22;4597;48.730;9.114;2023-03-15T00:28:09;3.00;99.90
9125;DHT22;4597;48.730;9.114;2023-03-15T00:30:35;3.00;99.90
9125;DHT22;4597;48.730;9.114;2023-03-15T00:33:01;3.00;99.90
9125;DHT22;4597;48.730;9.114;2023-03-15T00:35:26;3.00;99.90
9125;DHT22;4597;48.730;9.114;2023-03-15T00:37:55;3.00;99.90
9125;DHT22;4597;48.730;9.114;2023-03-15T00:40:22;3.00;99.90
9125;DHT22;4597;48.730;9.114;2023-03-15T00:42:48;2.90;99.90
9125;DHT22;4597;48.730;9.114;2023-03-15T00:45:15;2.80;99.90
9125;DHT22;4597;48.730;9.114;2023-03-15T00:47:41;2.80;99.90
9125;DHT22;4597;48.730;9.114;2023-03-15T00:50:06;2.80;99.90
9125;DHT22;4597;48.730;9.114;2023-03-15T00:52:36;2.70;99.90
9125;DHT22;4597;48.730;9.114;2023-03-15T00:55:02;2.50;99.90
9125;DHT22;4597;48.730;9.114;2023-03-15T00:57:28;2.50;99.90
9125;DHT22;4597;48.730;9.114;2023-03-15T00:59:54;2.60;99.90
9125;DHT22;4597;48.730;9.114;2023-03-15T01:02:19;2.60;99.90
9125;DHT22;4597;48.730;9.114;2023-03-15T01:04:47;2.50;99.90
9125;DHT22;4597;48.730;9.114;2023-03-15T01:07:13;2.50;99.90
9125;DHT22;4597;48.730;9.114;2023-03-15T01:09:38;2.50;99.90
9125;DHT22;4597;48.730;9.114;2023-03-15T01:12:05;2.50;99.90
9125;DHT22;4597;48.730;9.114;2023-03-15T01:14:31;2.40;99.90
9125;DHT22;4597;48.730;9.114;2023-03-15T01:16:59;2.40;99.90
9125;DHT22;4597;48.730;9.114;2023-03-15T01:19:25;2.30;99.90
9125;DHT22;4597;48.730;9.114;2023-03-15T01:21:50;2.30;99.90
9125;DHT22;4597;48.730;9.114;2023-03-15T01:24:16;2.30;99.90
9125;DHT22;4597;48.730;9.114;2023-03-15T01:26:41;2.30;99.90
9125;DHT22;4597;48.730;9.114;2023-03-15T01:29:07;2.20;99.90
9125;DHT22;4597;48.730;9.114;2023-03-15T01:31:32;2.20;99.90
9125;DHT22;4597;48.730;9.114;2023-03-15T01:33:58;2.20;99.90
9125;DHT22;4597;48.730;9.114;2023-03-15T01:36:25;2.20;99.90
9125;DHT22;4597;48.730;9.114;2023-03-15T01:38:50;2.10;99.90
9125;DHT22;4597;48.730;9.114;2023-03-15T01:41:17;2.10;99.90
9125;DHT22;4597;48.730;9.114;2023-03-15T01:43:43;2.00;99.90
9125;DHT22;4597;48.730;9.114;2023-03-15T01:46:31;2.00;99.90
9125;DHT22;4597;48.730;9.114;2023-03-15T01:49:04;2.10;99.90
9125;DHT22;4597;48.730;9.114;2023-03-15T01:51:36;2.00;99.90
9125;DHT22;4597;48.730;9.114;2023-03-15T01:54:05;1.90;99.90
9125;DHT22;4597;48.730;9.114;2023-03-15T01:56:34;1.90;99.90
9125;DHT22;4597;48.730;9.114;2023-03-15T01:59:03;2.00;99.90
9125;DHT22;4597;48.730;9.114;2023-03-15T02:01:29;2.10;99.90
9125;DHT22;4597;48.730;9.114;2023-03-15T02:04:02;2.10;99.90
9125;DHT22;4597;48.730;9.114;2023-03-15T02:06:30;2.10;99.90
9125;DHT22;4597;48.730;9.114;2023-03-15T02:09:02;2.10;99.90
9125;DHT22;4597;48.730;9.114;2023-03-15T02:11:28;2.10;99.90
9125;DHT22;4597;48.730;9.114;2023-03-15T02:13:55;2.10;99.90
9125;DHT22;4597;48.730;9.114;2023-03-15T02:16:23;2.10;99.90
9125;DHT22;4597;48.730;9.114;2023-03-15T02:18:49;2.00;99.90
9125;DHT22;4597;48.730;9.114;2023-03-15T02:24:40;2.00;99.90
9125;DHT22;4597;48.730;9.114;2023-03-15T02:27:08;2.10;99.90
9125;DHT22;4597;48.730;9.114;2023-03-15T02:29:34;2.20;99.90
9125;DHT22;4597;48.730;9.114;2023-03-15T02:32:00;2.20;99.90
9125;DHT22;4597;48.730;9.114;2023-03-15T02:34:29;2.10;99.90
9125;DHT22;4597;48.730;9.114;2023-03-15T02:36:56;2.10;99.90
9125;DHT22;4597;48.730;9.114;2023-03-15T02:39:22;2.10;99.90
9125;DHT22;4597;48.730;9.114;2023-03-15T02:41:56;2.10;99.90
9125;DHT22;4597;48.730;9.114;2023-03-15T02:44:29;2.10;99.90
9125;DHT22;4597;48.730;9.114;2023-03-15T02:46:58;2.20;99.90
9125;DHT22;4597;48.730;9.114;2023-03-15T02:49:27;2.20;99.90
9125;DHT22;4597;48.730;9.114;2023-03-15T02:51:53;2.20;99.90
9125;DHT22;4597;48.730;9.114;2023-03-15T02:54:19;2.20;99.90
9125;DHT22;4597;48.730;9.114;2023-03-15T02:56:44;2.20;99.90
9125;DHT22;4597;48.730;9.114;2023-03-15T02:59:10;2.30;99.90
9125;DHT22;4597;48.730;9.114;2023-03-15T03:01:37;2.20;99.90
9125;DHT22;4597;48.730;9.114;2023-03-15T03:04:02;2.20;99.90
9125;DHT22;4597;48.730;9.114;2023-03-15T03:06:28;2.10;99.90
9125;DHT22;4597;48.730;9.114;2023-03-15T03:08:53;2.10;99.90
9125;DHT22;4597;48.730;9.114;2023-03-15T03:11:19;2.10;99.90
9125;DHT22;4597;48.730;9.114;2023-03-15T03:13:45;2.10;99.90
9125;DHT22;4597;48.730;9.114;2023-03-15T03:16:10;2.10;99.90
9125;DHT22;4597;48.730;9.114;2023-03-15T03:18:36;2.10;99.90
9125;DHT22;4597;48.730;9.114;2023-03-15T03:21:04;2.00;99.90
9125;DHT22;4597;48.730;9.114;2023-03-15T03:23:31;2.10;99.90
9125;DHT22;4597;48.730;9.114;2023-03-15T03:25:58;2.10;99.90
9125;DHT22;4597;48.730;9.114;2023-03-15T03:28:26;2.10;99.90
9125;DHT22;4597;48.730;9.114;2023-03-15T03:30:53;2.10;99.90
9125;DHT22;4597;48.730;9.114;2023-03-15T03:33:19;2.00;99.90
9125;DHT22;4597;48.730;9.114;2023-03-15T03:35:45;2.00;99.90
9125;DHT22;4597;48.730;9.114;2023-03-15T03:38:11;2.00;99.90
9125;DHT22;4597;48.730;9.114;2023-03-15T03:40:38;2.10;99.90
9125;DHT22;4597;48.730;9.114;2023-03-15T03:43:04;2.00;99.90
9125;DHT22;4597;48.730;9.114;2023-03-15T03:45:30;2.10;99.90
9125;DHT22;4597;48.730;9.114;2023-03-15T03:47:56;2.10;99.90
9125;DHT22;4597;48.730;9.114;2023-03-15T03:50:21;2.10;99.90
9125;DHT22;4597;48.730;9.114;2023-03-15T03:52:47;2.10;99.90
9125;DHT22;4597;48.730;9.114;2023-03-15T03:55:12;2.10;99.90
9125;DHT22;4597;48.730;9.114;2023-03-15T03:57:39;2.10;99.90
9125;DHT22;4597;48.730;9.114;2023-03-15T04:00:06;2.00;99.90
9125;DHT22;4597;48.730;9.114;2023-03-15T04:02:33;2.10;99.90
9125;DHT22;4597;48.730;9.114;2023-03-15T04:04:59;2.00;99.90
9125;DHT22;4597;48.730;9.114;2023-03-15T04:07:25;1.90;99.90
9125;DHT22;4597;48.730;9.114;2023-03-15T04:09:50;1.90;99.90
9125;DHT22;4597;48.730;9.114;2023-03-15T04:12:16;1.90;99.90
9125;DHT22;4597;48.730;9.114;2023-03-15T04:14:41;1.90;99.90
9125;DHT22;4597;48.730;9.114;2023-03-15T04:17:07;1.90;99.90
9125;DHT22;4597;48.730;9.114;2023-03-15T04:19:33;1.90;99.90
9125;DHT22;4597;48.730;9.114;2023-03-15T04:21:59;1.90;99.90
9125;DHT22;4597;48.730;9.114;2023-03-15T04:24:31;1.90;99.90
9125;DHT22;4597;48.730;9.114;2023-03-15T04:26:57;1.80;99.90
9125;DHT22;4597;48.730;9.114;2023-03-15T04:29:23;1.80;99.90
9125;DHT22;4597;48.730;9.114;2023-03-15T04:31:48;1.80;99.90
9125;DHT22;4597;48.730;9.114;2023-03-15T04:34:13;1.80;99.90
9125;DHT22;4597;48.730;9.114;2023-03-15T04:36:39;1.70;99.90
9125;DHT22;4597;48.730;9.114;2023-03-15T04:39:07;1.70;99.90
9125;DHT22;4597;48.730;9.114;2023-03-15T04:41:34;1.80;99.90
9125;DHT22;4597;48.730;9.114;2023-03-15T04:44:04;1.80;99.90
9125;DHT22;4597;48.730;9.114;2023-03-15T04:46:30;1.80;99.90
9125;DHT22;4597;48.730;9.114;2023-03-15T04:48:57;1.80;99.90
9125;DHT22;4597;48.730;9.114;2023-03-15T04:51:22;1.80;99.90
9125;DHT22;4597;48.730;9.114;2023-03-15T04:53:48;1.70;99.90
9125;DHT22;4597;48.730;9.114;2023-03-15T04:56:13;1.80;99.90
9125;DHT22;4597;48.730;9.114;2023-03-15T04:58:39;1.70;99.90
9125;DHT22;4597;48.730;9.114;2023-03-15T05:01:04;1.70;99.90
9125;DHT22;4597;48.730;9.114;2023-03-15T05:03:30;1.70;99.90
9125;DHT22;4597;48.730;9.114;2023-03-15T05:05:55;1.70;99.90
9125;DHT22;4597;48.730;9.114;2023-03-15T05:08:21;1.60;99.90
9125;DHT22;4597;48.730;9.114;2023-03-15T05:10:46;1.60;99.90
9125;DHT22;4597;48.730;9.114;2023-03-15T05:13:12;1.50;99.90
9125;DHT22;4597;48.730;9.114;2023-03-15T05:15:38;1.60;99.90
9125;DHT22;4597;48.730;9.114;2023-03-15T05:18:03;1.60;99.90
9125;DHT22;4597;48.730;9.114;2023-03-15T05:20:29;1.60;99.90
9125;DHT22;4597;48.730;9.114;2023-03-15T05:22:55;1.50;99.90
9125;DHT22;4597;48.730;9.114;2023-03-15T05:25:20;1.50;99.90
9125;DHT22;4597;48.730;9.114;2023-03-15T05:27:46;1.50;99.90
9125;DHT22;4597;48.730;9.114;2023-03-15T05:30:12;1.50;99.90
9125;DHT22;4597;48.730;9.114;2023-03-15T05:32:39;1.40;99.90
9125;DHT22;4597;48.730;9.114;2023-03-15T05:35:09;1.40;99.90
9125;DHT22;4597;48.730;9.114;2023-03-15T05:37:35;1.40;99.90
9125;DHT22;4597;48.730;9.114;2023-03-15T05:40:01;1.30;99.90
9125;DHT22;4597;48.730;9.114;2023-03-15T05:42:26;1.30;99.90
9125;DHT22;4597;48.730;9.114;2023-03-15T05:44:52;1.30;99.90
9125;DHT22;4597;48.730;9.114;2023-03-15T05:47:18;1.30;99.90
9125;DHT22;4597;48.730;9.114;2023-03-15T05:49:44;1.30;99.90
9125;DHT22;4597;48.730;9.114;2023-03-15T05:52:10;1.30;99.90
9125;DHT22;4597;48.730;9.114;2023-03-15T05:54:35;1.30;99.90
9125;DHT22;4597;48.730;9.114;2023-03-15T05:57:01;1.30;99.90
9125;DHT22;4597;48.730;9.114;2023-03-15T05:59:26;1.30;99.90
9125;DHT22;4597;48.730;9.114;2023-03-15T06:01:51;1.30;99.90
9125;DHT22;4597;48.730;9.114;2023-03-15T06:04:17;1.30;99.90
9125;DHT22;4597;48.730;9.114;2023-03-15T06:06:42;1.30;99.90
9125;DHT22;4597;48.730;9.114;2023-03-15T06:09:08;1.30;99.90
9125;DHT22;4597;48.730;9.114;2023-03-15T06:11:33;1.30;99.90
9125;DHT22;4597;48.730;9.114;2023-03-15T06:13:59;1.30;99.90
9125;DHT22;4597;48.730;9.114;2023-03-15T06:16:25;1.40;99.90
9125;DHT22;4597;48.730;9.114;2023-03-15T06:18:50;1.30;99.90
9125;DHT22;4597;48.730;9.114;2023-03-15T06:21:16;1.40;99.90
9125;DHT22;4597;48.730;9.114;2023-03-15T06:23:41;1.40;99.90
9125;DHT22;4597;48.730;9.114;2023-03-15T06:26:07;1.30;99.90
9125;DHT22;4597;48.730;9.114;2023-03-15T06:28:32;1.30;99.90
9125;DHT22;4597;48.730;9.114;2023-03-15T06:31:02;1.30;99.90
9125;DHT22;4597;48.730;9.114;2023-03-15T06:33:28;1.30;99.90
9125;DHT22;4597;48.730;9.114;2023-03-15T06:35:53;1.30;99.90
9125;DHT22;4597;48.730;9.114;2023-03-15T06:38:19;1.40;99.90
9125;DHT22;4597;48.730;9.114;2023-03-15T06:40:45;1.40;99.90
9125;DHT22;4597;48.730;9.114;2023-03-15T06:43:10;1.40;99.90
9125;DHT22;4597;48.730;9.114;2023-03-15T06:45:43;1.40;99.90
9125;DHT22;4597;48.730;9.114;2023-03-15T06:48:08;1.40;99.90
9125;DHT22;4597;48.730;9.114;2023-03-15T06:50:33;1.40;99.90
9125;DHT22;4597;48.730;9.114;2023-03-15T06:52:59;1.40;99.90
9125;DHT22;4597;48.730;9.114;2023-03-15T06:55:25;1.40;99.90
9125;DHT22;4597;48.730;9.114;2023-03-15T06:57:50;1.50;99.90
9125;DHT22;4597;48.730;9.114;2023-03-15T07:00:16;1.50;99.90
9125;DHT22;4597;48.730;9.114;2023-03-15T07:02:41;1.50;99.90
9125;DHT22;4597;48.730;9.114;2023-03-15T07:05:07;1.50;99.90
9125;DHT22;4597;48.730;9.114;2023-03-15T07:07:33;1.50;99.90
9125;DHT22;4597;48.730;9.114;2023-03-15T07:09:58;1.50;99.90
9125;DHT22;4597;48.730;9.114;2023-03-15T07:12:24;1.60;99.90
9125;DHT22;4597;48.730;9.114;2023-03-15T07:14:49;1.60;99.90
9125;DHT22;4597;48.730;9.114;2023-03-15T07:17:15;1.60;99.90
9125;DHT22;4597;48.730;9.114;2023-03-15T07:19:41;1.60;99.90
9125;DHT22;4597;48.730;9.114;2023-03-15T07:22:06;1.60;99.90
9125;DHT22;4597;48.730;9.114;2023-03-15T07:24:32;1.70;99.90
9125;DHT22;4597;48.730;9.114;2023-03-15T07:26:57;1.70;99.90
9125;DHT22;4597;48.730;9.114;2023-03-15T07:29:23;1.80;99.90
9125;DHT22;4597;48.730;9.114;2023-03-15T07:31:49;1.90;99.90
9125;DHT22;4597;48.730;9.114;2023-03-15T07:34:15;1.90;99.90
9125;DHT22;4597;48.730;9.114;2023-03-15T07:36:41;2.00;99.90
9125;DHT22;4597;48.730;9.114;2023-03-15T07:39:06;2.10;99.90
9125;DHT22;4597;48.730;9.114;2023-03-15T07:41:32;2.10;99.90
9125;DHT22;4597;48.730;9.114;2023-03-15T07:43:57;2.20;99.90
9125;DHT22;4597;48.730;9.114;2023-03-15T07:46:23;2.30;99.90
9125;DHT22;4597;48.730;9.114;2023-03-15T07:48:48;2.30;99.90
9125;DHT22;4597;48.730;9.114;2023-03-15T07:51:14;2.40;99.90
9125;DHT22;4597;48.730;9.114;2023-03-15T07:53:39;2.50;99.90
9125;DHT22;4597;48.730;9.114;2023-03-15T07:56:05;2.50;99.90
9125;DHT22;4597;48.730;9.114;2023-03-15T07:58:30;2.60;99.90
9125;DHT22;4597;48.730;9.114;2023-03-15T08:00:56;2.60;99.90
9125;DHT22;4597;48.730;9.114;2023-03-15T08:03:23;2.80;99.90
9125;DHT22;4597;48.730;9.114;2023-03-15T08:05:50;2.80;99.90
9125;DHT22;4597;48.730;9.114;2023-03-15T08:08:15;2.90;99.90
9125;DHT22;4597;48.730;9.114;2023-03-15T08:10:43;3.00;99.90
9125;DHT22;4597;48.730;9.114;2023-03-15T08:13:09;3.20;99.90
9125;DHT22;4597;48.730;9.114;2023-03-15T08:15:34;3.30;99.90
9125;DHT22;4597;48.730;9.114;2023-03-15T08:18:00;3.40;99.90
9125;DHT22;4597;48.730;9.114;2023-03-15T08:20:26;3.40;99.90
9125;DHT22;4597;48.730;9.114;2023-03-15T08:22:51;3.40;99.90
9125;DHT22;4597;48.730;9.114;2023-03-15T08:25:21;3.50;99.90
9125;DHT22;4597;48.730;9.114;2023-03-15T08:27:48;3.60;99.90
9125;DHT22;4597;48.730;9.114;2023-03-15T08:30:16;3.70;99.90
9125;DHT22;4597;48.730;9.114;2023-03-15T08:32:43;3.80;99.90
9125;DHT22;4597;48.730;9.114;2023-03-15T08:35:10;4.00;99.90
9125;DHT22;4597;48.730;9.114;2023-03-15T08:37:38;4.10;99.90
9125;DHT22;4597;48.730;9.114;2023-03-15T08:40:04;4.20;99.90
9125;DHT22;4597;48.730;9.114;2023-03-15T08:42:34;4.20;99.90
9125;DHT22;4597;48.730;9.114;2023-03-15T08:45:00;4.30;99.90
9125;DHT22;4597;48.730;9.114;2023-03-15T08:47:26;4.30;99.90
9125;DHT22;4597;48.730;9.114;2023-03-15T08:49:52;4.40;99.90
9125;DHT22;4597;48.730;9.114;2023-03-15T08:52:18;4.40;99.90
9125;DHT22;4597;48.730;9.114;2023-03-15T08:54:44;4.60;99.90
9125;DHT22;4597;48.730;9.114;2023-03-15T08:57:10;4.60;99.90
9125;DHT22;4597;48.730;9.114;2023-03-15T08:59:37;4.70;99.90
9125;DHT22;4597;48.730;9.114;2023-03-15T09:02:03;4.70;99.90
9125;DHT22;4597;48.730;9.114;2023-03-15T09:04:29;4.80;99.90
9125;DHT22;4597;48.730;9.114;2023-03-15T09:06:55;4.90;99.90
9125;DHT22;4597;48.730;9.114;2023-03-15T09:09:20;4.90;99.90
9125;DHT22;4597;48.730;9.114;2023-03-15T09:11:46;5.00;99.90
9125;DHT22;4597;48.730;9.114;2023-03-15T09:14:12;5.10;99.90
9125;DHT22;4597;48.730;9.114;2023-03-15T09:16:37;5.20;99.90
9125;DHT22;4597;48.730;9.114;2023-03-15T09:19:03;5.40;99.90
9125;DHT22;4597;48.730;9.114;2023-03-15T09:21:28;5.50;99.80
9125;DHT22;4597;48.730;9.114;2023-03-15T09:23:54;5.50;99.70
9125;DHT22;4597;48.730;9.114;2023-03-15T09:26:19;5.60;99.90
9125;DHT22;4597;48.730;9.114;2023-03-15T09:28:45;5.60;95.20
9125;DHT22;4597;48.730;9.114;2023-03-15T09:31:10;5.60;94.30
9125;DHT22;4597;48.730;9.114;2023-03-15T09:33:36;5.60;93.20
9125;DHT22;4597;48.730;9.114;2023-03-15T09:36:01;5.60;92.80
9125;DHT22;4597;48.730;9.114;2023-03-15T09:38:27;5.70;91.70
9125;DHT22;4597;48.730;9.114;2023-03-15T09:40:59;5.70;92.30
9125;DHT22;4597;48.730;9.114;2023-03-15T09:43:42;5.80;94.00
9125;DHT22;4597;48.730;9.114;2023-03-15T09:46:31;5.90;91.50
9125;DHT22;4597;48.730;9.114;2023-03-15T09:49:08;6.00;90.40
9125;DHT22;4597;48.730;9.114;2023-03-15T09:51:45;6.00;88.90
9125;DHT22;4597;48.730;9.114;2023-03-15T09:56:59;6.00;84.70
9125;DHT22;4597;48.730;9.114;2023-03-15T09:59:35;6.10;83.20
9125;DHT22;4597;48.730;9.114;2023-03-15T10:02:28;6.00;82.90
9125;DHT22;4597;48.730;9.114;2023-03-15T10:04:59;6.00;81.70
9125;DHT22;4597;48.730;9.114;2023-03-15T10:07:26;6.00;87.30
9125;DHT22;4597;48.730;9.114;2023-03-15T10:09:51;6.00;86.30
9125;DHT22;4597;48.730;9.114;2023-03-15T10:12:22;6.00;85.70
9125;DHT22;4597;48.730;9.114;2023-03-15T10:15:20;6.10;82.70
9125;DHT22;4597;48.730;9.114;2023-03-15T10:17:57;6.10;83.90
9125;DHT22;4597;48.730;9.114;2023-03-15T10:20:31;6.10;80.60
9125;DHT22;4597;48.730;9.114;2023-03-15T10:23:00;6.20;81.90
9125;DHT22;4597;48.730;9.114;2023-03-15T10:25:31;6.40;80.60
9125;DHT22;4597;48.730;9.114;2023-03-15T10:30:31;6.50;76.10
9125;DHT22;4597;48.730;9.114;2023-03-15T10:33:12;6.60;73.40
9125;DHT22;4597;48.730;9.114;2023-03-15T10:35:39;6.60;73.60
9125;DHT22;4597;48.730;9.114;2023-03-15T10:38:20;6.70;72.80
9125;DHT22;4597;48.730;9.114;2023-03-15T10:40:54;6.80;70.20
9125;DHT22;4597;48.730;9.114;2023-03-15T10:43:23;6.70;75.50
9125;DHT22;4597;48.730;9.114;2023-03-15T10:46:09;6.60;70.60
9125;DHT22;4597;48.730;9.114;2023-03-15T10:51:28;6.60;71.00
9125;DHT22;4597;48.730;9.114;2023-03-15T10:54:21;6.50;71.50
9125;DHT22;4597;48.730;9.114;2023-03-15T10:56:50;6.40;73.60
9125;DHT22;4597;48.730;9.114;2023-03-15T10:59:23;6.40;73.60
9125;DHT22;4597;48.730;9.114;2023-03-15T11:04:47;6.50;78.00
9125;DHT22;4597;48.730;9.114;2023-03-15T11:07:13;6.50;79.90
9125;DHT22;4597;48.730;9.114;2023-03-15T11:10:03;6.50;79.90
9125;DHT22;4597;48.730;9.114;2023-03-15T11:12:28;6.50;82.60
9125;DHT22;4597;48.730;9.114;2023-03-15T11:15:10;6.40;83.40
9125;DHT22;4597;48.730;9.114;2023-03-15T11:17:44;6.40;85.80
9125;DHT22;4597;48.730;9.114;2023-03-15T11:20:26;6.40;87.80
9125;DHT22;4597;48.730;9.114;2023-03-15T11:22:56;6.30;90.40
9125;DHT22;4597;48.730;9.114;2023-03-15T11:25:27;6.30;89.00
9125;DHT22;4597;48.730;9.114;2023-03-15T11:27:55;6.20;89.00
9125;DHT22;4597;48.730;9.114;2023-03-15T11:30:26;6.10;90.20
9125;DHT22;4597;48.730;9.114;2023-03-15T11:32:53;6.10;90.50
9125;DHT22;4597;48.730;9.114;2023-03-15T11:35:23;6.10;90.50
9125;DHT22;4597;48.730;9.114;2023-03-15T11:37:54;6.10;91.70
9125;DHT22;4597;48.730;9.114;2023-03-15T11:40:32;6.10;93.10
9125;DHT22;4597;48.730;9.114;2023-03-15T11:43:08;6.20;94.00
9125;DHT22;4597;48.730;9.114;2023-03-15T11:45:50;6.20;94.20
9125;DHT22;4597;48.730;9.114;2023-03-15T11:48:30;6.20;96.10
9125;DHT22;4597;48.730;9.114;2023-03-15T11:50:58;6.20;98.50
9125;DHT22;4597;48.730;9.114;2023-03-15T11:53:37;6.30;98.10
9125;DHT22;4597;48.730;9.114;2023-03-15T11:56:23;6.40;98.90
9125;DHT22;4597;48.730;9.114;2023-03-15T11:59:06;6.40;98.00
9125;DHT22;4597;48.730;9.114;2023-03-15T12:01:33;6.40;99.90
9125;DHT22;4597;48.730;9.114;2023-03-15T12:06:51;6.20;99.90
9125;DHT22;4597;48.730;9.114;2023-03-15T12:11:58;5.80;99.90
9125;DHT22;4597;48.730;9.114;2023-03-15T12:14:30;5.50;99.90
9125;DHT22;4597;48.730;9.114;2023-03-15T12:20:07;5.20;99.90
9125;DHT22;4597;48.730;9.114;2023-03-15T12:22:34;5.00;99.90
9125;DHT22;4597;48.730;9.114;2023-03-15T12:25:15;5.10;99.90
9125;DHT22;4597;48.730;9.114;2023-03-15T12:27:53;5.00;99.90
9125;DHT22;4597;48.730;9.114;2023-03-15T12:30:28;4.90;99.90
9125;DHT22;4597;48.730;9.114;2023-03-15T12:32:55;4.90;99.90
9125;DHT22;4597;48.730;9.114;2023-03-15T12:35:23;5.00;99.90
9125;DHT22;4597;48.730;9.114;2023-03-15T12:37:52;5.10;99.90
9125;DHT22;4597;48.730;9.114;2023-03-15T12:50:38;4.90;99.90
9125;DHT22;4597;48.730;9.114;2023-03-15T12:53:28;5.00;99.90
9125;DHT22;4597;48.730;9.114;2023-03-15T12:56:27;5.10;99.90
9125;DHT22;4597;48.730;9.114;2023-03-15T12:58:57;5.10;99.90
9125;DHT22;4597;48.730;9.114;2023-03-15T13:01:24;5.00;99.90
9125;DHT22;4597;48.730;9.114;2023-03-15T13:03:54;5.20;99.90
9125;DHT22;4597;48.730;9.114;2023-03-15T13:06:44;5.20;99.90
9125;DHT22;4597;48.730;9.114;2023-03-15T13:12:23;5.40;99.90
9125;DHT22;4597;48.730;9.114;2023-03-15T13:17:49;5.70;99.90
9125;DHT22;4597;48.730;9.114;2023-03-15T13:20:51;5.80;99.90
9125;DHT22;4597;48.730;9.114;2023-03-15T13:23:25;5.80;99.90
9125;DHT22;4597;48.730;9.114;2023-03-15T13:28:24;5.90;99.90
9125;DHT22;4597;48.730;9.114;2023-03-15T13:30:53;6.10;99.90
9125;DHT22;4597;48.730;9.114;2023-03-15T13:33:26;6.10;99.90
9125;DHT22;4597;48.730;9.114;2023-03-15T13:36:00;6.10;99.90
9125;DHT22;4597;48.730;9.114;2023-03-15T13:38:32;6.10;99.90
9125;DHT22;4597;48.730;9.114;2023-03-15T13:41:00;6.10;99.90
9125;DHT22;4597;48.730;9.114;2023-03-15T13:43:36;6.30;99.90
9125;DHT22;4597;48.730;9.114;2023-03-15T13:46:03;6.40;99.90
9125;DHT22;4597;48.730;9.114;2023-03-15T13:48:34;6.70;99.90
9125;DHT22;4597;48.730;9.114;2023-03-15T13:51:24;6.90;99.90
9125;DHT22;4597;48.730;9.114;2023-03-15T13:53:50;6.90;99.90
9125;DHT22;4597;48.730;9.114;2023-03-15T13:56:19;7.00;99.90
9125;DHT22;4597;48.730;9.114;2023-03-15T13:58:50;7.10;99.90
9125;DHT22;4597;48.730;9.114;2023-03-15T14:01:17;7.20;99.90
9125;DHT22;4597;48.730;9.114;2023-03-15T14:03:46;7.20;99.90
9125;DHT22;4597;48.730;9.114;2023-03-15T14:06:20;7.10;99.90
9125;DHT22;4597;48.730;9.114;2023-03-15T14:08:46;7.00;99.90
9125;DHT22;4597;48.730;9.114;2023-03-15T14:11:34;6.60;99.90
9125;DHT22;4597;48.730;9.114;2023-03-15T14:14:12;6.10;99.90
9125;DHT22;4597;48.730;9.114;2023-03-15T14:16:44;6.10;99.90
9125;DHT22;4597;48.730;9.114;2023-03-15T14:19:19;6.00;99.90
9125;DHT22;4597;48.730;9.114;2023-03-15T14:21:50;5.90;99.90
9125;DHT22;4597;48.730;9.114;2023-03-15T14:24:45;5.80;99.90
9125;DHT22;4597;48.730;9.114;2023-03-15T14:27:25;5.80;99.90
9125;DHT22;4597;48.730;9.114;2023-03-15T14:29:57;5.50;99.90
9125;DHT22;4597;48.730;9.114;2023-03-15T14:32:34;5.30;99.90
9125;DHT22;4597;48.730;9.114;2023-03-15T14:35:22;5.20;99.90
9125;DHT22;4597;48.730;9.114;2023-03-15T14:37:59;5.30;99.90
9125;DHT22;4597;48.730;9.114;2023-03-15T14:40:33;5.40;99.90
9125;DHT22;4597;48.730;9.114;2023-03-15T14:43:00;5.30;99.90
9125;DHT22;4597;48.730;9.114;2023-03-15T14:45:26;5.50;99.90
9125;DHT22;4597;48.730;9.114;2023-03-15T14:47:55;5.50;99.90
9125;DHT22;4597;48.730;9.114;2023-03-15T14:50:23;5.30;99.90
9125;DHT22;4597;48.730;9.114;2023-03-15T14:52:49;5.20;99.90
9125;DHT22;4597;48.730;9.114;2023-03-15T14:55:18;5.20;99.90
9125;DHT22;4597;48.730;9.114;2023-03-15T14:57:44;5.10;99.90
9125;DHT22;4597;48.730;9.114;2023-03-15T15:00:14;5.00;99.90
9125;DHT22;4597;48.730;9.114;2023-03-15T15:02:43;5.10;99.90
9125;DHT22;4597;48.730;9.114;2023-03-15T15:05:21;5.00;99.90
9125;DHT22;4597;48.730;9.114;2023-03-15T15:07:48;5.00;99.90
9125;DHT22;4597;48.730;9.114;2023-03-15T15:10:14;4.70;99.90
9125;DHT22;4597;48.730;9.114;2023-03-15T15:12:40;4.70;99.90
9125;DHT22;4597;48.730;9.114;2023-03-15T15:15:17;4.70;99.90
9125;DHT22;4597;48.730;9.114;2023-03-15T15:17:43;4.60;99.90
9125;DHT22;4597;48.730;9.114;2023-03-15T15:20:09;4.60;99.90
9125;DHT22;4597;48.730;9.114;2023-03-15T15:22:37;4.50;99.90
9125;DHT22;4597;48.730;9.114;2023-03-15T15:25:18;4.50;99.90
9125;DHT22;4597;48.730;9.114;2023-03-15T15:27:45;4.60;99.90
9125;DHT22;4597;48.730;9.114;2023-03-15T15:30:13;4.70;99.90
9125;DHT22;4597;48.730;9.114;2023-03-15T15:32:39;4.70;99.90
9125;DHT22;4597;48.730;9.114;2023-03-15T15:35:06;4.80;99.90
9125;DHT22;4597;48.730;9.114;2023-03-15T15:37:33;4.70;99.90
9125;DHT22;4597;48.730;9.114;2023-03-15T15:39:58;4.80;99.90
9125;DHT22;4597;48.730;9.114;2023-03-15T15:42:24;4.80;99.90
9125;DHT22;4597;48.730;9.114;2023-03-15T15:44:49;4.90;99.90
9125;DHT22;4597;48.730;9.114;2023-03-15T15:47:15;4.90;99.90
9125;DHT22;4597;48.730;9.114;2023-03-15T15:49:41;4.80;99.90
9125;DHT22;4597;48.730;9.114;2023-03-15T15:52:10;4.70;99.90
9125;DHT22;4597;48.730;9.114;2023-03-15T15:54:36;4.80;99.90
9125;DHT22;4597;48.730;9.114;2023-03-15T15:57:02;4.90;99.90
9125;DHT22;4597;48.730;9.114;2023-03-15T15:59:28;4.90;99.90
9125;DHT22;4597;48.730;9.114;2023-03-15T16:01:55;4.90;99.90
9125;DHT22;4597;48.730;9.114;2023-03-15T16:04:21;5.00;99.90
9125;DHT22;4597;48.730;9.114;2023-03-15T16:06:51;4.90;99.90
9125;DHT22;4597;48.730;9.114;2023-03-15T16:09:18;5.00;99.90
9125;DHT22;4597;48.730;9.114;2023-03-15T16:11:44;4.90;99.90
9125;DHT22;4597;48.730;9.114;2023-03-15T16:14:11;5.10;99.90
9125;DHT22;4597;48.730;9.114;2023-03-15T16:16:37;5.30;99.90
9125;DHT22;4597;48.730;9.114;2023-03-15T16:19:03;5.40;99.90
9125;DHT22;4597;48.730;9.114;2023-03-15T16:21:32;5.60;99.90
9125;DHT22;4597;48.730;9.114;2023-03-15T16:24:10;5.90;99.90
9125;DHT22;4597;48.730;9.114;2023-03-15T16:26:37;5.90;99.90
9125;DHT22;4597;48.730;9.114;2023-03-15T16:29:11;6.00;99.90
9125;DHT22;4597;48.730;9.114;2023-03-15T16:31:38;6.00;99.90
9125;DHT22;4597;48.730;9.114;2023-03-15T16:34:11;6.10;99.90
9125;DHT22;4597;48.730;9.114;2023-03-15T16:36:39;6.20;99.90
9125;DHT22;4597;48.730;9.114;2023-03-15T16:39:09;6.30;99.90
9125;DHT22;4597;48.730;9.114;2023-03-15T16:41:35;6.30;99.90
9125;DHT22;4597;48.730;9.114;2023-03-15T16:44:01;6.30;99.90
9125;DHT22;4597;48.730;9.114;2023-03-15T16:46:26;6.30;99.90
9125;DHT22;4597;48.730;9.114;2023-03-15T16:48:52;6.10;99.90
9125;DHT22;4597;48.730;9.114;2023-03-15T16:51:17;6.10;99.90
9125;DHT22;4597;48.730;9.114;2023-03-15T16:53:43;6.00;99.90
9125;DHT22;4597;48.730;9.114;2023-03-15T16:56:13;5.90;99.90
9125;DHT22;4597;48.730;9.114;2023-03-15T16:58:40;5.80;99.90
9125;DHT22;4597;48.730;9.114;2023-03-15T17:01:11;5.60;99.90
9125;DHT22;4597;48.730;9.114;2023-03-15T17:03:36;5.60;99.90
9125;DHT22;4597;48.730;9.114;2023-03-15T17:06:02;5.60;99.90
9125;DHT22;4597;48.730;9.114;2023-03-15T17:08:28;5.50;99.90